Time;durP1;ratioP1;P1;durP2;ratioP2;P2;SDS_P1;SDS_P2;PMS_P1;PMS_P2;Temp;Humidity;BMP_temperature;BMP_pressure;BME280_temperature;BME280_humidity;BME280_pressure;Samples;Min_cycle;Max_cycle;Signal;HPM_P1;HPM_P2
2022/12/03 00:00:49;;;;;;;;;;;2.80;90.70;;;;;;5043952;28;19935;-80
2022/12/03 00:03:14;;;;;;;;;;;2.80;90.80;;;;;;5039734;28;19921;-77
2022/12/03 00:05:40;;;;;;;;;;;2.80;90.70;;;;;;5052269;28;19964;-79
2022/12/03 00:08:05;;;;;;;;;;;2.80;90.80;;;;;;5057988;28;20340;-80
2022/12/03 00:10:31;;;;;;;;;;;2.80;90.70;;;;;;5055991;28;19931;-79
2022/12/03 00:12:56;;;;;;;;;;;2.90;90.80;;;;;;5053215;28;19917;-78
2022/12/03 00:15:22;;;;;;;;;;;2.80;90.70;;;;;;5040423;28;19923;-78
2022/12/03 00:17:47;;;;;;;;;;;2.80;90.70;;;;;;5046472;28;19920;-78
2022/12/03 00:20:20;;;;;;;;;;;2.80;90.70;;;;;;5040871;28;19927;-79
2022/12/03 00:22:45;;;;;;;;;;;2.80;90.70;;;;;;5059994;28;20016;-78
2022/12/03 00:25:11;;;;;;;;;;;2.80;90.70;;;;;;5047052;28;20008;-78
2022/12/03 00:27:36;;;;;;;;;;;2.80;90.70;;;;;;5049957;28;19924;-79
2022/12/03 00:30:02;;;;;;;;;;;2.80;90.80;;;;;;5069465;28;20388;-78
2022/12/03 00:32:28;;;;;;;;;;;2.70;90.70;;;;;;5036176;28;19931;-79
2022/12/03 00:34:53;;;;;;;;;;;2.80;90.80;;;;;;5035754;28;19921;-79
2022/12/03 00:37:19;;;;;;;;;;;2.80;90.70;;;;;;5032052;28;20381;-79
2022/12/03 00:39:44;;;;;;;;;;;2.70;90.70;;;;;;5045281;28;19920;-79
2022/12/03 00:42:10;;;;;;;;;;;2.80;90.80;;;;;;5039912;28;20947;-78
2022/12/03 00:44:35;;;;;;;;;;;2.70;90.70;;;;;;5037881;28;19925;-79
2022/12/03 00:47:01;;;;;;;;;;;2.70;90.70;;;;;;5056292;28;20515;-79
2022/12/03 00:49:26;;;;;;;;;;;2.70;90.70;;;;;;5039959;28;19933;-78
2022/12/03 00:51:52;;;;;;;;;;;2.80;90.80;;;;;;5046480;28;19973;-78
2022/12/03 00:54:17;;;;;;;;;;;2.80;90.70;;;;;;5039801;28;20047;-78
2022/12/03 00:56:43;;;;;;;;;;;2.70;90.70;;;;;;5038546;28;19943;-77
2022/12/03 00:59:08;;;;;;;;;;;2.70;90.70;;;;;;5055466;28;19932;-79
2022/12/03 01:01:33;;;;;;;;;;;2.70;90.80;;;;;;5046752;28;19921;-78
2022/12/03 01:03:59;;;;;;;;;;;2.70;90.70;;;;;;5059218;28;19979;-80
2022/12/03 01:06:24;;;;;;;;;;;2.70;90.80;;;;;;5041652;28;20523;-78
2022/12/03 01:08:50;;;;;;;;;;;2.70;90.80;;;;;;5041583;28;19917;-79
2022/12/03 01:13:59;;;;;;;;;;;2.70;90.80;;;;;;5041628;28;19927;-77
2022/12/03 01:16:25;;;;;;;;;;;2.70;90.70;;;;;;5049858;28;19917;-79
2022/12/03 01:18:51;;;;;;;;;;;2.70;90.70;;;;;;5036876;28;19983;-77
2022/12/03 01:21:17;;;;;;;;;;;2.70;90.80;;;;;;5034566;28;19917;-78
2022/12/03 01:23:43;;;;;;;;;;;2.70;90.80;;;;;;5029623;28;20000;-79
2022/12/03 01:26:08;;;;;;;;;;;2.70;90.80;;;;;;5037154;28;19917;-77
2022/12/03 01:28:34;;;;;;;;;;;2.70;90.80;;;;;;5057401;28;19925;-79
2022/12/03 01:33:43;;;;;;;;;;;2.70;90.80;;;;;;5060944;28;19924;-78
2022/12/03 01:36:09;;;;;;;;;;;2.70;90.70;;;;;;5044345;28;19920;-77
2022/12/03 01:38:34;;;;;;;;;;;2.70;90.80;;;;;;5052772;28;20353;-78
2022/12/03 01:41:00;;;;;;;;;;;2.70;90.80;;;;;;5043032;28;19917;-78
2022/12/03 01:43:25;;;;;;;;;;;2.70;90.80;;;;;;5056393;28;19921;-78
2022/12/03 01:45:51;;;;;;;;;;;2.70;91.10;;;;;;5047330;28;20343;-78
2022/12/03 01:48:16;;;;;;;;;;;2.70;90.80;;;;;;5054347;28;19921;-78
2022/12/03 01:50:42;;;;;;;;;;;2.70;90.80;;;;;;5045976;28;19991;-78
2022/12/03 01:53:07;;;;;;;;;;;2.70;90.80;;;;;;5029486;28;19925;-78
2022/12/03 01:55:33;;;;;;;;;;;2.70;90.80;;;;;;5029361;28;20398;-78
2022/12/03 01:57:59;;;;;;;;;;;2.70;90.80;;;;;;5049258;28;19927;-79
2022/12/03 02:00:25;;;;;;;;;;;2.70;90.80;;;;;;5056449;28;19928;-76
2022/12/03 02:02:55;;;;;;;;;;;2.70;90.80;;;;;;5052457;28;19920;-79
2022/12/03 02:05:21;;;;;;;;;;;2.70;90.80;;;;;;5058576;28;19931;-76
2022/12/03 02:07:47;;;;;;;;;;;2.70;90.80;;;;;;5059114;28;19917;-79
2022/12/03 02:10:14;;;;;;;;;;;2.70;90.80;;;;;;5060141;28;19928;-79
2022/12/03 02:12:41;;;;;;;;;;;2.70;90.80;;;;;;5051420;28;19952;-79
2022/12/03 02:15:06;;;;;;;;;;;2.70;90.80;;;;;;5038188;28;19931;-79
2022/12/03 02:17:32;;;;;;;;;;;2.70;90.80;;;;;;5052684;28;19916;-79
2022/12/03 02:19:57;;;;;;;;;;;2.70;90.80;;;;;;5052432;28;19932;-78
2022/12/03 02:22:26;;;;;;;;;;;2.70;90.80;;;;;;5060041;28;19917;-77
2022/12/03 02:24:58;;;;;;;;;;;2.70;90.80;;;;;;5050820;28;19924;-77
2022/12/03 02:27:24;;;;;;;;;;;2.60;90.80;;;;;;5046305;28;19928;-78
2022/12/03 02:29:49;;;;;;;;;;;2.70;90.80;;;;;;5048240;28;19929;-79
2022/12/03 02:32:15;;;;;;;;;;;2.70;90.80;;;;;;5041593;28;19925;-75
2022/12/03 02:34:41;;;;;;;;;;;2.70;90.80;;;;;;5053157;28;19917;-78
2022/12/03 02:37:08;;;;;;;;;;;2.70;90.80;;;;;;5051548;28;19920;-79
2022/12/03 02:39:34;;;;;;;;;;;2.70;90.80;;;;;;5060857;28;19920;-79
2022/12/03 02:44:43;;;;;;;;;;;2.70;90.80;;;;;;5064509;28;20005;-77
2022/12/03 02:47:09;;;;;;;;;;;2.70;90.80;;;;;;5061861;28;19978;-78
2022/12/03 02:49:34;;;;;;;;;;;2.70;90.80;;;;;;5058087;28;19925;-78
2022/12/03 02:52:00;;;;;;;;;;;2.70;90.80;;;;;;5061483;28;19927;-77
2022/12/03 02:54:25;;;;;;;;;;;2.70;90.80;;;;;;5048908;28;20413;-78
2022/12/03 02:56:51;;;;;;;;;;;2.70;90.80;;;;;;5057643;28;20017;-78
2022/12/03 02:59:16;;;;;;;;;;;2.70;90.80;;;;;;5057777;28;19925;-79
2022/12/03 03:01:42;;;;;;;;;;;2.70;90.70;;;;;;5044787;28;19922;-78
2022/12/03 03:04:08;;;;;;;;;;;2.70;90.80;;;;;;5072771;28;19927;-78
2022/12/03 03:06:33;;;;;;;;;;;2.70;90.70;;;;;;5062629;28;19925;-78
2022/12/03 03:08:59;;;;;;;;;;;2.70;90.80;;;;;;5059422;28;20636;-78
2022/12/03 03:11:24;;;;;;;;;;;2.70;90.70;;;;;;5060948;28;19928;-79
2022/12/03 03:13:50;;;;;;;;;;;2.70;90.80;;;;;;5062977;28;19948;-77
2022/12/03 03:16:15;;;;;;;;;;;2.70;90.80;;;;;;5048894;28;19935;-78
2022/12/03 03:18:41;;;;;;;;;;;2.70;90.80;;;;;;5040978;28;20015;-78
2022/12/03 03:21:06;;;;;;;;;;;2.70;90.80;;;;;;5034434;28;19952;-79
2022/12/03 03:23:32;;;;;;;;;;;2.70;90.80;;;;;;5036273;28;20356;-78
2022/12/03 03:25:58;;;;;;;;;;;2.70;90.80;;;;;;5039815;28;19955;-79
2022/12/03 03:28:24;;;;;;;;;;;2.70;90.80;;;;;;5047189;28;19921;-78
2022/12/03 03:30:49;;;;;;;;;;;2.70;90.80;;;;;;5038468;28;20022;-78
2022/12/03 03:33:15;;;;;;;;;;;2.70;90.80;;;;;;5042043;28;20578;-76
2022/12/03 03:35:40;;;;;;;;;;;2.70;90.80;;;;;;5057233;28;19974;-78
2022/12/03 03:38:06;;;;;;;;;;;2.70;90.80;;;;;;5052985;28;20481;-77
2022/12/03 03:40:31;;;;;;;;;;;2.70;90.80;;;;;;5051862;28;19964;-78
2022/12/03 03:42:57;;;;;;;;;;;2.70;90.80;;;;;;5042966;28;19956;-78
2022/12/03 03:45:22;;;;;;;;;;;2.70;90.80;;;;;;5064212;28;19928;-78
2022/12/03 03:47:48;;;;;;;;;;;2.80;90.80;;;;;;5058149;28;19959;-76
2022/12/03 03:50:13;;;;;;;;;;;2.80;90.80;;;;;;5052355;28;20095;-79
2022/12/03 03:52:39;;;;;;;;;;;2.70;90.80;;;;;;5063113;28;19924;-79
2022/12/03 03:55:04;;;;;;;;;;;2.70;90.80;;;;;;5062279;28;19963;-78
2022/12/03 03:57:30;;;;;;;;;;;2.70;90.80;;;;;;5061275;28;19920;-78
2022/12/03 03:59:56;;;;;;;;;;;2.80;90.80;;;;;;5064386;28;19928;-78
2022/12/03 04:02:23;;;;;;;;;;;2.70;90.80;;;;;;5059412;28;19933;-79
2022/12/03 04:04:51;;;;;;;;;;;2.70;90.80;;;;;;5053935;28;19946;-77
2022/12/03 04:07:17;;;;;;;;;;;2.70;90.80;;;;;;5047635;28;19920;-77
2022/12/03 04:09:42;;;;;;;;;;;2.70;90.80;;;;;;5061514;28;20296;-78
2022/12/03 04:14:52;;;;;;;;;;;2.70;91.10;;;;;;5063006;28;19971;-79
2022/12/03 04:17:17;;;;;;;;;;;2.70;90.80;;;;;;5060691;28;19917;-78
2022/12/03 04:19:43;;;;;;;;;;;2.70;90.80;;;;;;5062390;28;19920;-80
2022/12/03 04:28:47;;;;;;;;;;;2.80;90.80;;;;;;5064546;28;19924;-78
2022/12/03 04:30:22;;;;;;;;;;;2.70;90.80;;;;;;5064245;28;20563;-78
2022/12/03 04:35:41;;;;;;;;;;;2.70;90.80;;;;;;5057590;28;19931;-79
2022/12/03 04:38:06;;;;;;;;;;;2.70;90.80;;;;;;5061963;28;20020;-77
2022/12/03 04:43:15;;;;;;;;;;;2.70;90.80;;;;;;5059274;28;20319;-78
2022/12/03 04:45:41;;;;;;;;;;;2.70;90.80;;;;;;5065568;28;19956;-79
2022/12/03 04:48:06;;;;;;;;;;;2.70;90.80;;;;;;5063787;28;19920;-79
2022/12/03 04:50:32;;;;;;;;;;;2.70;90.80;;;;;;5060015;28;19920;-77
2022/12/03 04:52:57;;;;;;;;;;;2.70;90.80;;;;;;5055213;28;20521;-78
2022/12/03 04:55:23;;;;;;;;;;;2.70;90.80;;;;;;5063051;28;19921;-79
2022/12/03 04:57:48;;;;;;;;;;;2.70;90.80;;;;;;5049369;28;19924;-78
2022/12/03 05:00:14;;;;;;;;;;;2.70;90.80;;;;;;5056063;28;20708;-78
2022/12/03 05:02:39;;;;;;;;;;;2.70;90.80;;;;;;5051002;28;19931;-78
2022/12/03 05:05:05;;;;;;;;;;;2.70;91.10;;;;;;5046589;28;20393;-78
2022/12/03 05:07:31;;;;;;;;;;;2.70;90.80;;;;;;5061930;28;19955;-78
2022/12/03 05:09:56;;;;;;;;;;;2.70;90.80;;;;;;5063354;28;19929;-78
2022/12/03 05:12:21;;;;;;;;;;;2.70;90.80;;;;;;5023380;28;19924;-79
2022/12/03 05:14:47;;;;;;;;;;;2.80;90.80;;;;;;5044135;28;19917;-78
2022/12/03 05:17:12;;;;;;;;;;;2.70;90.80;;;;;;5047134;28;19951;-78
2022/12/03 05:22:22;;;;;;;;;;;2.70;90.80;;;;;;5054937;28;20157;-79
2022/12/03 05:24:47;;;;;;;;;;;2.70;90.80;;;;;;5045639;28;20369;-79
2022/12/03 05:27:13;;;;;;;;;;;2.70;90.80;;;;;;5062939;28;19920;-78
2022/12/03 05:29:38;;;;;;;;;;;2.70;90.80;;;;;;5064521;28;20021;-79
2022/12/03 05:32:04;;;;;;;;;;;2.70;90.80;;;;;;5082316;28;19935;-79
2022/12/03 05:34:29;;;;;;;;;;;2.70;90.80;;;;;;5061965;28;19916;-79
2022/12/03 05:36:55;;;;;;;;;;;2.70;90.80;;;;;;5061019;28;20019;-78
2022/12/03 05:39:20;;;;;;;;;;;2.70;90.80;;;;;;5041763;28;19917;-78
2022/12/03 05:44:30;;;;;;;;;;;2.70;90.80;;;;;;5062183;28;19951;-77
2022/12/03 05:46:56;;;;;;;;;;;2.70;90.80;;;;;;5043453;28;19932;-78
2022/12/03 05:49:21;;;;;;;;;;;2.70;90.80;;;;;;5051909;28;19920;-78
2022/12/03 05:51:46;;;;;;;;;;;2.70;90.80;;;;;;5061829;28;19921;-77
2022/12/03 05:54:12;;;;;;;;;;;2.70;90.80;;;;;;5056467;28;19924;-78
2022/12/03 05:56:37;;;;;;;;;;;2.70;90.80;;;;;;5064152;28;19924;-79
2022/12/03 05:59:03;;;;;;;;;;;2.70;90.80;;;;;;5068348;28;19928;-78
2022/12/03 06:01:28;;;;;;;;;;;2.70;90.80;;;;;;5064509;28;19981;-79
2022/12/03 06:03:54;;;;;;;;;;;2.70;90.80;;;;;;5066912;28;20479;-78
2022/12/03 06:06:20;;;;;;;;;;;2.70;90.80;;;;;;5066664;28;20272;-79
2022/12/03 06:08:45;;;;;;;;;;;2.70;90.80;;;;;;5068852;28;19921;-78
2022/12/03 06:11:11;;;;;;;;;;;2.70;90.80;;;;;;5061918;28;19943;-76
2022/12/03 06:13:36;;;;;;;;;;;2.70;90.80;;;;;;5058419;28;19912;-79
2022/12/03 06:16:02;;;;;;;;;;;2.70;90.90;;;;;;5056938;28;19905;-77
2022/12/03 06:18:27;;;;;;;;;;;2.80;90.80;;;;;;5056722;28;19917;-76
2022/12/03 06:20:53;;;;;;;;;;;2.80;90.80;;;;;;5054617;28;19943;-77
2022/12/03 06:23:18;;;;;;;;;;;2.80;90.80;;;;;;5078085;28;19917;-77
2022/12/03 06:25:44;;;;;;;;;;;2.80;90.80;;;;;;5074113;28;21200;-76
2022/12/03 06:28:09;;;;;;;;;;;2.80;90.80;;;;;;5074690;28;19921;-76
2022/12/03 06:30:35;;;;;;;;;;;2.80;90.80;;;;;;5072889;28;19931;-76
2022/12/03 06:33:00;;;;;;;;;;;2.80;90.80;;;;;;5062098;28;20403;-77
2022/12/03 06:35:26;;;;;;;;;;;2.80;90.80;;;;;;5078051;28;19947;-78
2022/12/03 06:37:51;;;;;;;;;;;2.80;90.80;;;;;;5059918;28;19928;-76
2022/12/03 06:40:17;;;;;;;;;;;2.90;90.80;;;;;;5073000;28;19921;-76
2022/12/03 06:42:42;;;;;;;;;;;2.90;90.80;;;;;;5062382;28;19917;-77
2022/12/03 06:45:08;;;;;;;;;;;2.80;90.80;;;;;;5073360;28;19925;-76
2022/12/03 06:47:33;;;;;;;;;;;2.90;90.80;;;;;;5067441;28;19921;-75
2022/12/03 06:49:59;;;;;;;;;;;2.90;90.80;;;;;;5085067;28;19905;-77
2022/12/03 06:52:24;;;;;;;;;;;2.90;90.80;;;;;;5080991;28;19916;-76
2022/12/03 06:54:50;;;;;;;;;;;2.80;90.80;;;;;;5082154;28;19992;-76
2022/12/03 06:57:15;;;;;;;;;;;2.90;90.80;;;;;;5084584;28;19955;-75
2022/12/03 06:59:41;;;;;;;;;;;2.90;90.80;;;;;;5061357;28;20365;-76
2022/12/03 07:02:06;;;;;;;;;;;2.90;90.80;;;;;;5069942;28;19920;-75
2022/12/03 07:04:32;;;;;;;;;;;2.90;90.80;;;;;;5080803;28;20196;-76
2022/12/03 07:06:57;;;;;;;;;;;2.90;90.80;;;;;;5076700;28;20369;-76
2022/12/03 07:09:23;;;;;;;;;;;2.90;90.80;;;;;;5075152;28;20656;-77
2022/12/03 07:11:49;;;;;;;;;;;2.90;90.80;;;;;;5075639;28;19928;-76
2022/12/03 07:14:14;;;;;;;;;;;2.90;90.80;;;;;;5074085;28;19924;-75
2022/12/03 07:16:41;;;;;;;;;;;2.90;90.80;;;;;;5075777;28;19963;-76
2022/12/03 07:19:07;;;;;;;;;;;2.90;90.80;;;;;;5072451;28;19920;-75
2022/12/03 07:21:33;;;;;;;;;;;2.90;90.80;;;;;;5073392;28;19984;-75
2022/12/03 07:24:14;;;;;;;;;;;2.90;90.80;;;;;;5013138;28;24357;-76
2022/12/03 07:26:39;;;;;;;;;;;2.90;90.80;;;;;;5061585;28;19923;-76
2022/12/03 07:29:05;;;;;;;;;;;2.90;90.80;;;;;;5074326;28;19932;-77
2022/12/03 07:31:30;;;;;;;;;;;2.90;90.80;;;;;;5074354;28;19920;-76
2022/12/03 07:33:56;;;;;;;;;;;2.90;90.80;;;;;;5067368;28;19943;-75
2022/12/03 07:36:21;;;;;;;;;;;2.90;90.80;;;;;;5056368;28;20015;-77
2022/12/03 07:38:47;;;;;;;;;;;2.90;90.80;;;;;;5069433;28;19920;-76
2022/12/03 07:41:12;;;;;;;;;;;2.90;90.80;;;;;;5074579;28;19913;-75
2022/12/03 07:43:38;;;;;;;;;;;2.90;90.80;;;;;;5072418;28;20471;-77
2022/12/03 07:46:18;;;;;;;;;;;2.90;90.80;;;;;;5071498;28;19922;-78
2022/12/03 07:48:44;;;;;;;;;;;2.90;90.80;;;;;;5027147;28;19931;-77
2022/12/03 07:51:09;;;;;;;;;;;2.90;90.80;;;;;;5059966;28;19921;-77
2022/12/03 07:53:35;;;;;;;;;;;2.90;90.80;;;;;;5064160;28;19920;-76
2022/12/03 07:56:02;;;;;;;;;;;2.90;90.80;;;;;;5067847;28;19916;-75
2022/12/03 07:58:27;;;;;;;;;;;2.90;90.80;;;;;;5075886;28;19925;-76
2022/12/03 08:00:53;;;;;;;;;;;2.90;90.80;;;;;;5062016;28;19921;-76
2022/12/03 08:03:18;;;;;;;;;;;2.90;90.80;;;;;;5044634;28;19917;-76
2022/12/03 08:05:44;;;;;;;;;;;2.90;90.80;;;;;;5053026;28;19925;-76
2022/12/03 08:08:09;;;;;;;;;;;2.90;90.80;;;;;;5060736;28;20109;-75
2022/12/03 08:10:35;;;;;;;;;;;2.90;90.80;;;;;;5065784;28;20024;-76
2022/12/03 08:13:00;;;;;;;;;;;2.90;90.80;;;;;;5049660;28;20423;-76
2022/12/03 08:15:26;;;;;;;;;;;2.90;90.80;;;;;;5054951;28;19931;-76
2022/12/03 08:17:53;;;;;;;;;;;2.90;90.80;;;;;;5068227;28;19951;-76
2022/12/03 08:20:19;;;;;;;;;;;2.90;90.80;;;;;;5062943;28;19916;-74
2022/12/03 08:22:46;;;;;;;;;;;2.90;90.80;;;;;;5043118;28;21233;-78
2022/12/03 08:25:12;;;;;;;;;;;3.00;90.80;;;;;;5061373;28;19916;-77
2022/12/03 08:27:38;;;;;;;;;;;2.90;90.80;;;;;;5055502;28;19916;-76
2022/12/03 08:30:03;;;;;;;;;;;2.90;90.80;;;;;;5064420;28;19964;-77
2022/12/03 08:32:29;;;;;;;;;;;3.00;90.80;;;;;;5042690;28;19986;-78
2022/12/03 08:34:55;;;;;;;;;;;3.00;90.80;;;;;;5041056;28;19962;-77
2022/12/03 08:37:20;;;;;;;;;;;3.00;90.80;;;;;;5061757;28;20339;-77
2022/12/03 08:39:47;;;;;;;;;;;2.90;90.80;;;;;;5065470;28;20038;-76
2022/12/03 08:45:26;;;;;;;;;;;3.00;90.80;;;;;;5067322;28;19938;-76
2022/12/03 08:47:54;;;;;;;;;;;3.00;90.80;;;;;;5059773;28;19951;-75
2022/12/03 08:50:22;;;;;;;;;;;2.90;90.80;;;;;;5065651;28;19925;-77
2022/12/03 08:52:48;;;;;;;;;;;2.90;90.80;;;;;;5066071;28;20346;-75
2022/12/03 08:55:46;;;;;;;;;;;2.90;90.80;;;;;;5044524;28;20011;-76
2022/12/03 08:58:17;;;;;;;;;;;2.90;90.80;;;;;;5018721;28;20447;-77
2022/12/03 09:00:43;;;;;;;;;;;2.90;91.10;;;;;;5040429;28;19917;-78
2022/12/03 09:03:10;;;;;;;;;;;2.90;90.80;;;;;;5053793;28;20645;-77
2022/12/03 09:05:36;;;;;;;;;;;3.00;90.80;;;;;;5054248;28;20051;-76
2022/12/03 09:08:01;;;;;;;;;;;3.00;90.80;;;;;;5058947;28;19923;-76
2022/12/03 09:10:27;;;;;;;;;;;3.00;90.80;;;;;;5048586;28;19933;-76
2022/12/03 09:12:52;;;;;;;;;;;3.00;90.80;;;;;;5047585;28;20585;-76
2022/12/03 09:15:18;;;;;;;;;;;3.00;90.80;;;;;;5055878;28;19927;-77
2022/12/03 09:17:43;;;;;;;;;;;2.90;90.80;;;;;;5064607;28;20365;-76
2022/12/03 09:20:09;;;;;;;;;;;3.00;90.80;;;;;;5054385;28;19951;-76
2022/12/03 09:22:34;;;;;;;;;;;3.00;90.80;;;;;;5048478;28;19925;-77
2022/12/03 09:25:00;;;;;;;;;;;3.00;90.90;;;;;;5046017;28;20385;-77
2022/12/03 09:27:25;;;;;;;;;;;3.00;90.80;;;;;;5050025;28;19917;-76
2022/12/03 09:29:51;;;;;;;;;;;3.00;90.80;;;;;;5041132;28;19916;-77
2022/12/03 09:32:16;;;;;;;;;;;3.00;90.80;;;;;;5040526;28;19929;-76
2022/12/03 09:34:41;;;;;;;;;;;3.00;90.80;;;;;;5043511;28;19924;-77
2022/12/03 09:37:07;;;;;;;;;;;3.00;90.80;;;;;;5039025;28;19928;-76
2022/12/03 09:39:33;;;;;;;;;;;3.00;90.80;;;;;;5026069;28;20644;-76
2022/12/03 09:41:58;;;;;;;;;;;3.00;90.80;;;;;;5032915;28;19956;-78
2022/12/03 09:44:24;;;;;;;;;;;3.00;90.80;;;;;;5037199;28;19928;-77
2022/12/03 09:46:49;;;;;;;;;;;3.00;90.80;;;;;;5033436;28;19935;-76
2022/12/03 09:49:15;;;;;;;;;;;3.00;90.80;;;;;;5036378;28;20354;-75
2022/12/03 09:51:41;;;;;;;;;;;3.00;90.80;;;;;;5058443;28;19924;-75
2022/12/03 09:54:06;;;;;;;;;;;3.00;90.80;;;;;;5061689;28;19920;-76
2022/12/03 09:56:32;;;;;;;;;;;3.00;90.80;;;;;;5044984;28;19920;-76
2022/12/03 09:58:58;;;;;;;;;;;3.10;90.80;;;;;;5062066;28;19958;-76
2022/12/03 10:01:23;;;;;;;;;;;3.10;90.80;;;;;;5066655;28;20292;-76
2022/12/03 10:03:49;;;;;;;;;;;3.10;90.80;;;;;;5065647;28;19978;-76
2022/12/03 10:06:16;;;;;;;;;;;3.10;90.80;;;;;;5066233;28;19916;-76
2022/12/03 10:08:41;;;;;;;;;;;3.10;90.80;;;;;;5064083;28;19921;-75
2022/12/03 10:11:07;;;;;;;;;;;3.10;90.70;;;;;;5063305;28;20391;-76
2022/12/03 10:13:34;;;;;;;;;;;3.10;90.80;;;;;;5040435;28;20576;-76
2022/12/03 10:16:00;;;;;;;;;;;3.20;90.80;;;;;;5054140;28;19921;-77
2022/12/03 10:18:27;;;;;;;;;;;3.20;90.80;;;;;;5065009;28;19923;-76
2022/12/03 10:29:13;;;;;;;;;;;3.20;90.80;;;;;;4338187;26;19929;-74
2022/12/03 10:31:38;;;;;;;;;;;3.20;90.70;;;;;;5037777;28;19974;-79
2022/12/03 10:34:04;;;;;;;;;;;3.20;90.70;;;;;;5058159;28;19928;-77
2022/12/03 10:36:29;;;;;;;;;;;3.20;90.70;;;;;;5035462;28;19967;-77
2022/12/03 10:39:04;;;;;;;;;;;3.20;90.70;;;;;;5003648;28;19928;-78
2022/12/03 10:41:29;;;;;;;;;;;3.20;90.70;;;;;;5030936;28;19925;-78
2022/12/03 10:44:06;;;;;;;;;;;3.20;91.10;;;;;;5018360;28;19922;-78
2022/12/03 10:46:32;;;;;;;;;;;3.20;90.70;;;;;;5034821;28;19917;-79
2022/12/03 10:49:08;;;;;;;;;;;3.30;90.80;;;;;;5013655;28;19925;-77
2022/12/03 10:51:33;;;;;;;;;;;3.20;90.70;;;;;;5008868;28;20258;-78
2022/12/03 10:53:59;;;;;;;;;;;3.20;90.70;;;;;;5010361;28;20004;-78
2022/12/03 10:56:24;;;;;;;;;;;3.20;90.70;;;;;;5038783;28;19925;-77
2022/12/03 10:58:50;;;;;;;;;;;3.20;90.70;;;;;;5024997;28;20419;-77
2022/12/03 11:01:19;;;;;;;;;;;3.20;90.70;;;;;;5011072;28;20285;-78
2022/12/03 11:03:45;;;;;;;;;;;3.30;90.80;;;;;;5034967;28;19925;-78
2022/12/03 11:06:17;;;;;;;;;;;3.30;90.80;;;;;;5010169;28;19932;-77
2022/12/03 11:08:43;;;;;;;;;;;3.30;90.70;;;;;;5017704;28;19967;-78
2022/12/03 11:11:47;;;;;;;;;;;3.30;90.70;;;;;;5013252;28;20063;-77
2022/12/03 11:14:12;;;;;;;;;;;3.30;90.70;;;;;;4977964;28;19922;-76
2022/12/03 11:16:38;;;;;;;;;;;3.30;90.70;;;;;;4944284;28;20014;-78
2022/12/03 11:19:04;;;;;;;;;;;3.30;90.70;;;;;;4978243;28;20346;-77
2022/12/03 11:21:29;;;;;;;;;;;3.30;90.70;;;;;;4977491;28;19925;-77
2022/12/03 11:23:57;;;;;;;;;;;3.30;90.70;;;;;;4981439;28;19925;-78
2022/12/03 11:26:26;;;;;;;;;;;3.40;90.70;;;;;;4976296;28;20408;-77
2022/12/03 11:28:52;;;;;;;;;;;3.40;90.70;;;;;;4981244;28;19987;-78
2022/12/03 11:31:26;;;;;;;;;;;3.40;90.70;;;;;;4975254;28;20003;-78
2022/12/03 11:33:52;;;;;;;;;;;3.40;90.70;;;;;;4981237;28;20770;-77
2022/12/03 11:36:18;;;;;;;;;;;3.40;90.70;;;;;;4960771;28;19934;-77
2022/12/03 11:38:44;;;;;;;;;;;3.40;90.70;;;;;;4966579;28;19957;-77
2022/12/03 11:41:19;;;;;;;;;;;3.40;90.70;;;;;;4973249;28;19925;-78
2022/12/03 11:43:50;;;;;;;;;;;3.40;90.70;;;;;;4973623;28;19926;-77
2022/12/03 11:46:16;;;;;;;;;;;3.40;90.70;;;;;;5005544;28;19929;-78
2022/12/03 11:48:42;;;;;;;;;;;3.40;90.70;;;;;;5011425;28;20028;-77
2022/12/03 11:51:11;;;;;;;;;;;3.40;90.70;;;;;;5022102;28;20592;-77
2022/12/03 11:53:37;;;;;;;;;;;3.40;90.70;;;;;;5010501;28;20177;-78
2022/12/03 11:56:07;;;;;;;;;;;3.50;90.70;;;;;;5023659;28;19922;-78
2022/12/03 11:58:33;;;;;;;;;;;3.50;90.70;;;;;;5001563;28;19922;-78
2022/12/03 12:01:00;;;;;;;;;;;3.50;90.70;;;;;;5008605;28;19975;-77
2022/12/03 12:03:25;;;;;;;;;;;3.50;90.70;;;;;;5005799;28;19917;-76
2022/12/03 12:06:06;;;;;;;;;;;3.50;90.70;;;;;;5008450;28;19943;-76
2022/12/03 12:08:32;;;;;;;;;;;3.50;90.70;;;;;;5003312;28;19925;-76
2022/12/03 12:10:58;;;;;;;;;;;3.50;90.70;;;;;;5003771;28;19922;-77
2022/12/03 12:13:23;;;;;;;;;;;3.50;90.70;;;;;;5009615;28;20644;-76
2022/12/03 12:15:49;;;;;;;;;;;3.50;90.70;;;;;;5008056;28;20351;-76
2022/12/03 12:18:33;;;;;;;;;;;3.50;90.70;;;;;;4998728;28;19926;-76
2022/12/03 12:21:17;;;;;;;;;;;3.50;90.70;;;;;;5002560;28;19917;-77
2022/12/03 12:23:43;;;;;;;;;;;3.50;90.70;;;;;;5007450;28;20496;-76
2022/12/03 12:26:08;;;;;;;;;;;3.50;90.70;;;;;;5010055;28;19928;-78
2022/12/03 12:28:34;;;;;;;;;;;3.50;90.70;;;;;;5019582;28;19997;-77
2022/12/03 12:30:59;;;;;;;;;;;3.60;90.70;;;;;;5005256;28;20496;-76
2022/12/03 12:33:25;;;;;;;;;;;3.60;90.70;;;;;;5012228;28;19928;-76
2022/12/03 12:35:51;;;;;;;;;;;3.60;90.70;;;;;;5003485;28;19921;-77
2022/12/03 12:38:17;;;;;;;;;;;3.60;90.70;;;;;;5014594;28;20377;-75
2022/12/03 12:40:44;;;;;;;;;;;3.60;90.70;;;;;;5011247;28;19924;-76
2022/12/03 12:43:09;;;;;;;;;;;3.60;90.60;;;;;;5002482;28;19927;-76
2022/12/03 12:45:36;;;;;;;;;;;3.60;90.60;;;;;;5011934;28;19925;-75
2022/12/03 12:48:13;;;;;;;;;;;3.60;90.60;;;;;;5008364;28;19956;-76
2022/12/03 12:50:39;;;;;;;;;;;3.60;90.60;;;;;;5002793;28;20289;-77
2022/12/03 12:53:10;;;;;;;;;;;3.60;90.60;;;;;;5012660;28;19929;-77
2022/12/03 12:55:38;;;;;;;;;;;3.60;90.70;;;;;;5005508;28;20446;-78
2022/12/03 12:58:10;;;;;;;;;;;3.60;90.70;;;;;;5008369;28;19928;-77
2022/12/03 13:00:35;;;;;;;;;;;3.60;91.00;;;;;;5028865;28;20357;-77
2022/12/03 13:03:01;;;;;;;;;;;3.60;90.60;;;;;;5005527;28;19928;-76
2022/12/03 13:05:36;;;;;;;;;;;3.60;90.60;;;;;;5001569;28;19940;-76
2022/12/03 13:08:01;;;;;;;;;;;3.60;90.60;;;;;;5001471;28;19922;-78
2022/12/03 13:10:32;;;;;;;;;;;3.60;90.70;;;;;;5002196;28;19979;-77
2022/12/03 13:13:01;;;;;;;;;;;3.60;90.70;;;;;;5025723;28;19926;-77
2022/12/03 13:15:36;;;;;;;;;;;3.60;90.70;;;;;;5005962;28;19926;-77
2022/12/03 13:18:07;;;;;;;;;;;3.70;90.70;;;;;;5003363;28;19921;-77
2022/12/03 13:20:33;;;;;;;;;;;3.70;90.70;;;;;;5015128;28;19928;-78
2022/12/03 13:22:58;;;;;;;;;;;3.70;90.70;;;;;;5011554;28;19918;-78
2022/12/03 13:25:31;;;;;;;;;;;3.70;90.70;;;;;;5009205;28;20712;-77
2022/12/03 13:27:56;;;;;;;;;;;3.70;90.70;;;;;;5009302;28;19952;-76
2022/12/03 13:30:22;;;;;;;;;;;3.70;90.70;;;;;;5011031;28;20540;-78
2022/12/03 13:32:48;;;;;;;;;;;3.70;90.70;;;;;;5021901;28;20012;-77
2022/12/03 13:35:16;;;;;;;;;;;3.70;90.70;;;;;;5015911;28;19932;-78
2022/12/03 13:37:41;;;;;;;;;;;3.70;90.70;;;;;;5017538;28;19917;-77
2022/12/03 13:40:10;;;;;;;;;;;3.70;90.70;;;;;;5017586;28;20392;-77
2022/12/03 13:42:44;;;;;;;;;;;3.70;90.70;;;;;;5020231;28;19922;-78
2022/12/03 13:45:12;;;;;;;;;;;3.70;90.70;;;;;;5007190;28;19926;-77
2022/12/03 13:47:37;;;;;;;;;;;3.70;90.60;;;;;;5003614;28;19921;-76
2022/12/03 13:50:06;;;;;;;;;;;3.70;90.60;;;;;;5028567;28;19957;-76
2022/12/03 13:52:31;;;;;;;;;;;3.70;90.60;;;;;;4997591;28;19936;-77
2022/12/03 13:54:57;;;;;;;;;;;3.70;90.60;;;;;;5027914;28;19922;-76
2022/12/03 13:57:22;;;;;;;;;;;3.70;90.60;;;;;;4999998;28;19928;-76
2022/12/03 13:59:48;;;;;;;;;;;3.70;90.60;;;;;;5001250;28;20512;-76
2022/12/03 14:02:13;;;;;;;;;;;3.70;90.60;;;;;;4997383;28;20420;-78
2022/12/03 14:04:39;;;;;;;;;;;3.70;90.60;;;;;;5004612;28;20011;-76
2022/12/03 14:07:04;;;;;;;;;;;3.70;90.60;;;;;;5002421;28;19968;-77
2022/12/03 14:09:30;;;;;;;;;;;3.70;90.70;;;;;;4997227;28;20377;-77
2022/12/03 14:14:40;;;;;;;;;;;3.70;90.70;;;;;;5003924;28;19928;-76
2022/12/03 14:17:06;;;;;;;;;;;3.70;90.60;;;;;;5000915;28;19925;-77
2022/12/03 14:19:31;;;;;;;;;;;3.70;90.70;;;;;;5007278;28;20374;-77
2022/12/03 14:21:57;;;;;;;;;;;3.70;90.70;;;;;;5010519;28;19921;-75
2022/12/03 14:24:22;;;;;;;;;;;3.70;90.60;;;;;;5006286;28;19922;-76
2022/12/03 14:26:48;;;;;;;;;;;3.70;90.70;;;;;;5005171;28;20340;-77
2022/12/03 14:29:13;;;;;;;;;;;3.70;90.60;;;;;;5007082;28;19939;-77
2022/12/03 14:31:39;;;;;;;;;;;3.70;90.60;;;;;;5005289;28;19930;-77
2022/12/03 14:34:04;;;;;;;;;;;3.70;90.60;;;;;;5004527;28;19920;-76
2022/12/03 14:36:30;;;;;;;;;;;3.70;90.70;;;;;;5005970;28;19914;-77
2022/12/03 14:38:55;;;;;;;;;;;3.70;90.70;;;;;;5005847;28;19913;-77
2022/12/03 14:44:05;;;;;;;;;;;3.70;90.70;;;;;;5010795;28;19998;-75
2022/12/03 14:46:30;;;;;;;;;;;3.60;90.60;;;;;;4998549;28;19960;-77
2022/12/03 14:48:56;;;;;;;;;;;3.60;90.60;;;;;;5003304;28;19921;-76
2022/12/03 14:51:21;;;;;;;;;;;3.70;90.70;;;;;;5010571;28;19917;-77
2022/12/03 14:53:47;;;;;;;;;;;3.60;90.60;;;;;;5012978;28;20024;-77
2022/12/03 14:56:12;;;;;;;;;;;3.60;90.60;;;;;;5010377;28;19925;-76
2022/12/03 14:58:38;;;;;;;;;;;3.70;90.70;;;;;;5014967;28;19932;-77
2022/12/03 15:01:03;;;;;;;;;;;3.70;90.60;;;;;;5015918;28;19972;-77
2022/12/03 15:03:29;;;;;;;;;;;3.70;90.60;;;;;;5006205;28;19924;-75
2022/12/03 15:05:54;;;;;;;;;;;3.70;90.60;;;;;;5013613;28;20401;-77
2022/12/03 15:08:21;;;;;;;;;;;3.70;90.60;;;;;;5010443;28;19971;-77
2022/12/03 15:10:46;;;;;;;;;;;3.70;90.60;;;;;;5002968;28;20000;-77